Portada
METAR-TAF:

METAR-TAF

Aeropuertos :

Aeropuerto Internacional Diori Hamani

Niamey, Níger

latitud: 13-29N, longitud: 002-10E, altitud: 223 m

Observación

El informe se hizo hace 16 minutos, a las 06:00 UTC
Viento 3 kt del noreste
Temperatura 23°C
Humedad 16%
Presión 1012 hPa
Visibilidad: 1600 m
Polvo extendido

METAR: DRRN 270600Z 04003KT 1600 DU NSC 23/M04 Q1012 NOSIG

Hora: 07:16 (06:16 UTC)

Pronóstico

El informe se hizo hace 1 hora y 16 minutos, a las 05:00 UTC
Pronóstico válido del 27 a las 06 UTC al 28 a las 12 UTC
Viento 6 kt del este-noreste
Visibilidad: 3000 m
Polvo extendido
Temporalmente
del 27 a las 06 UTC al 27 a las 12 UTC
Viento 16 kt del este
Visibilidad: 2000 m
Ventisca alta de polvo
Evolucionando progresivamente
del 27 a las 20 UTC al 27 a las 22 UTC
Visibilidad: 6000 m

TAF: DRRN 270500Z 2706/2812 06006KT 3000 DU NSC TEMPO 2706/2712 08016KT 2000 BLDU BECMG 2720/2722 6000 NSW

Observaciones y pronósticos meteorológicos de más de 4000 aeropuertos (mensajes METAR y TAF).

Los puntos amarillos y rojos representan las estaciones disponibles.

Ponga el ratón en el punto deseado para ver el nombre de la estación.

Haga clic para ver las observaciones y los pronósticos meteorológicos.

Para cambiar el mapa : haga clic en los botones verdes con una cruz de color negro para hacer un zoom, en el botón verde con un guión para alejar o en las flechas verdes para mapas adyacentes.


METAR-TAF: